Time;durP1;ratioP1;P1;durP2;ratioP2;P2;SDS_P1;SDS_P2;PMS_P1;PMS_P2;Temp;Humidity;BMP_temperature;BMP_pressure;BME280_temperature;BME280_humidity;BME280_pressure;Samples;Min_cycle;Max_cycle;Signal;HPM_P1;HPM_P2
2024/03/18 00:01:08;;;;;;;10.27;6.10;;;10.10;98.00;;;;;;5052680;28;20481;-67
2024/03/18 00:03:36;;;;;;;10.70;6.27;;;10.10;98.00;;;;;;5053220;28;20821;-67
2024/03/18 00:06:04;;;;;;;13.50;6.47;;;10.10;98.00;;;;;;5053063;28;20465;-67
2024/03/18 00:08:31;;;;;;;14.33;7.40;;;10.10;98.00;;;;;;5053101;28;20453;-67
2024/03/18 00:10:59;;;;;;;27.83;10.30;;;10.10;98.00;;;;;;5051528;28;20826;-67
2024/03/18 00:13:26;;;;;;;19.60;8.47;;;10.10;98.00;;;;;;5052578;28;20817;-67
2024/03/18 00:15:53;;;;;;;16.60;7.87;;;10.00;98.00;;;;;;5052533;28;20462;-67
2024/03/18 00:18:20;;;;;;;16.77;7.33;;;10.00;98.00;;;;;;5052395;28;20499;-67
2024/03/18 00:20:50;;;;;;;16.73;7.80;;;9.90;98.00;;;;;;5052791;28;20453;-67
2024/03/18 00:23:17;;;;;;;15.53;7.03;;;10.00;98.00;;;;;;5053007;28;20525;-67
2024/03/18 00:25:44;;;;;;;15.53;7.47;;;10.00;98.00;;;;;;5052987;28;20459;-67
2024/03/18 00:28:13;;;;;;;17.87;7.53;;;10.20;98.00;;;;;;5052633;28;20504;-67
2024/03/18 00:30:40;;;;;;;14.83;6.87;;;10.20;98.00;;;;;;5052507;28;20550;-67
2024/03/18 00:33:08;;;;;;;14.23;6.53;;;10.20;98.00;;;;;;5052743;28;20800;-67
2024/03/18 00:35:35;;;;;;;12.47;6.07;;;10.20;98.00;;;;;;5052575;28;20500;-67
2024/03/18 00:38:04;;;;;;;14.07;6.43;;;10.30;98.00;;;;;;5052158;28;20477;-67
2024/03/18 00:40:31;;;;;;;14.87;6.90;;;10.60;98.00;;;;;;5052323;28;20457;-67
2024/03/18 00:42:58;;;;;;;15.50;6.20;;;10.60;98.00;;;;;;5052231;28;20490;-67
2024/03/18 00:45:25;;;;;;;10.47;6.07;;;10.50;98.00;;;;;;5052350;28;20973;-67
2024/03/18 00:47:52;;;;;;;11.40;6.07;;;10.50;98.00;;;;;;5052101;28;20511;-67
2024/03/18 00:50:19;;;;;;;12.53;5.93;;;10.50;98.00;;;;;;5052092;28;20449;-67
2024/03/18 00:52:47;;;;;;;11.70;6.20;;;10.40;98.00;;;;;;5052321;28;20451;-67
2024/03/18 00:55:16;;;;;;;8.50;5.10;;;10.40;98.00;;;;;;5051939;28;21012;-67
2024/03/18 00:57:43;;;;;;;9.53;5.70;;;10.40;98.00;;;;;;5052045;28;20868;-66
2024/03/18 01:00:12;;;;;;;8.57;5.00;;;10.50;98.00;;;;;;5051772;28;20966;-67
2024/03/18 01:02:39;;;;;;;10.13;5.50;;;10.60;98.00;;;;;;5051819;28;20519;-67
2024/03/18 01:05:09;;;;;;;8.43;5.30;;;10.60;98.00;;;;;;5051986;28;20514;-67
2024/03/18 01:07:40;;;;;;;7.63;5.17;;;10.50;98.00;;;;;;5051932;28;20454;-67
2024/03/18 01:10:08;;;;;;;10.40;5.50;;;10.40;98.00;;;;;;5051706;28;20522;-67
2024/03/18 01:12:40;;;;;;;8.00;4.70;;;10.50;98.00;;;;;;5051806;28;20531;-67
2024/03/18 01:15:08;;;;;;;8.57;4.80;;;10.50;98.00;;;;;;5051243;28;20475;-67
2024/03/18 01:17:38;;;;;;;9.83;4.77;;;10.60;98.00;;;;;;5051780;28;21194;-67
2024/03/18 01:20:14;;;;;;;7.33;4.70;;;10.50;98.00;;;;;;5051856;28;20448;-66
2024/03/18 01:22:43;;;;;;;10.80;5.03;;;10.50;98.00;;;;;;5051840;28;20481;-67
2024/03/18 01:25:13;;;;;;;12.03;5.20;;;10.50;98.00;;;;;;5051724;28;20537;-67
2024/03/18 01:27:43;;;;;;;13.77;5.17;;;10.40;98.00;;;;;;5051754;28;20527;-67
2024/03/18 01:30:13;;;;;;;9.70;5.77;;;10.50;98.00;;;;;;5051737;28;20464;-67
2024/03/18 01:32:41;;;;;;;11.10;5.37;;;10.50;98.00;;;;;;5051916;28;20576;-67
2024/03/18 01:35:09;;;;;;;13.63;5.10;;;10.30;98.00;;;;;;5051718;28;20465;-67
2024/03/18 01:37:38;;;;;;;9.00;5.43;;;10.10;98.00;;;;;;5051605;28;20792;-66
2024/03/18 01:40:07;;;;;;;10.17;5.27;;;10.10;98.00;;;;;;5051782;28;20521;-67
2024/03/18 01:42:34;;;;;;;9.90;5.00;;;10.10;98.00;;;;;;5051677;28;20866;-67
2024/03/18 01:45:05;;;;;;;9.90;5.03;;;10.00;98.00;;;;;;5051680;28;20553;-67
2024/03/18 01:47:32;;;;;;;9.97;5.60;;;10.00;98.00;;;;;;5050079;28;20468;-67
2024/03/18 01:49:59;;;;;;;11.70;5.53;;;10.10;98.00;;;;;;5051621;28;20450;-66
2024/03/18 01:52:27;;;;;;;10.90;5.07;;;10.30;98.00;;;;;;5051482;28;20458;-67
2024/03/18 01:54:54;;;;;;;8.70;5.40;;;10.40;98.00;;;;;;5051664;28;20459;-66
2024/03/18 01:57:21;;;;;;;10.90;5.37;;;10.60;98.00;;;;;;5051388;28;20463;-67
2024/03/18 01:59:47;;;;;;;7.33;4.50;;;10.50;98.00;;;;;;5051515;28;20807;-67
2024/03/18 02:02:16;;;;;;;9.07;5.07;;;10.40;98.00;;;;;;5051247;28;20505;-67
2024/03/18 02:04:44;;;;;;;12.23;4.93;;;10.30;98.00;;;;;;5051543;28;20484;-67
2024/03/18 02:07:22;;;;;;;11.93;5.30;;;10.30;98.00;;;;;;5051452;28;20457;-67
2024/03/18 02:09:49;;;;;;;10.33;5.67;;;10.40;98.00;;;;;;5051441;28;20499;-67
2024/03/18 02:12:16;;;;;;;7.67;4.80;;;10.30;98.00;;;;;;5051405;28;20456;-67
2024/03/18 02:14:46;;;;;;;9.07;4.83;;;10.20;98.00;;;;;;5051667;28;20457;-67
2024/03/18 02:17:14;;;;;;;8.80;5.17;;;10.10;98.00;;;;;;5051560;28;20461;-67
2024/03/18 02:19:41;;;;;;;8.17;4.97;;;10.10;98.00;;;;;;5051568;28;21131;-67
2024/03/18 02:22:10;;;;;;;11.63;5.20;;;10.10;98.00;;;;;;5051168;28;20488;-67
2024/03/18 02:24:38;;;;;;;11.00;6.03;;;10.00;98.00;;;;;;5051573;28;20459;-67
2024/03/18 02:27:08;;;;;;;16.07;6.20;;;10.10;98.00;;;;;;5055159;28;20451;-67
2024/03/18 02:29:36;;;;;;;8.97;5.50;;;10.20;98.00;;;;;;5054543;28;20461;-67
2024/03/18 02:32:03;;;;;;;10.70;5.97;;;10.20;98.00;;;;;;5054753;28;20457;-67
2024/03/18 02:34:31;;;;;;;11.47;6.00;;;10.30;98.00;;;;;;5054676;28;20990;-67
2024/03/18 02:36:58;;;;;;;12.03;5.43;;;10.40;98.00;;;;;;5054843;28;21125;-67
2024/03/18 02:39:27;;;;;;;11.90;5.00;;;10.50;98.00;;;;;;5054502;28;20453;-67
2024/03/18 02:41:55;;;;;;;20.03;5.23;;;10.40;98.00;;;;;;5054553;28;21003;-67
2024/03/18 02:44:22;;;;;;;10.80;5.47;;;10.30;98.00;;;;;;5054513;28;20457;-67
2024/03/18 02:46:51;;;;;;;10.03;5.53;;;10.20;98.00;;;;;;5054728;28;20445;-67
2024/03/18 02:49:18;;;;;;;8.20;5.00;;;10.10;98.00;;;;;;5054437;28;20463;-67
2024/03/18 02:51:45;;;;;;;8.47;5.00;;;10.00;98.00;;;;;;5054250;28;20805;-66
2024/03/18 02:54:12;;;;;;;10.27;5.40;;;10.10;98.00;;;;;;5054329;28;20445;-67
2024/03/18 02:56:40;;;;;;;9.60;5.90;;;10.00;98.00;;;;;;5054383;28;20927;-67
2024/03/18 02:59:08;;;;;;;10.07;5.60;;;9.90;98.00;;;;;;5054113;28;20442;-67
2024/03/18 03:01:35;;;;;;;11.03;5.97;;;9.90;98.00;;;;;;5054069;28;20462;-67
2024/03/18 03:04:03;;;;;;;12.07;6.07;;;9.80;98.00;;;;;;5054254;28;20448;-67
2024/03/18 03:06:31;;;;;;;9.77;5.50;;;9.80;98.00;;;;;;5054182;28;20458;-67
2024/03/18 03:09:00;;;;;;;12.40;6.63;;;9.70;98.00;;;;;;5054212;28;20855;-66
2024/03/18 03:11:27;;;;;;;15.03;5.23;;;9.60;98.00;;;;;;5054288;28;20516;-67
2024/03/18 03:13:56;;;;;;;10.30;5.60;;;9.70;98.00;;;;;;5054003;28;20770;-67
2024/03/18 03:16:23;;;;;;;11.70;5.90;;;9.90;98.00;;;;;;5053862;28;20461;-66
2024/03/18 03:18:50;;;;;;;10.30;5.53;;;9.80;98.00;;;;;;5054021;28;21075;-67
2024/03/18 03:21:18;;;;;;;11.30;5.80;;;9.80;98.00;;;;;;5054128;28;20477;-67
2024/03/18 03:23:47;;;;;;;8.63;5.20;;;9.70;98.00;;;;;;5053848;28;20919;-67
2024/03/18 03:26:15;;;;;;;12.03;5.97;;;9.70;98.00;;;;;;5053928;28;20448;-67
2024/03/18 03:28:42;;;;;;;9.37;5.37;;;9.80;98.00;;;;;;5053497;28;20459;-67
2024/03/18 03:31:10;;;;;;;11.10;5.40;;;9.90;98.00;;;;;;5053905;28;20455;-67
2024/03/18 03:33:39;;;;;;;11.60;5.90;;;9.90;98.00;;;;;;5053615;28;20456;-67
2024/03/18 03:36:07;;;;;;;8.17;5.10;;;9.80;98.00;;;;;;5052965;28;20456;-66
2024/03/18 03:38:34;;;;;;;11.23;5.60;;;9.80;98.00;;;;;;5053374;28;20521;-67
2024/03/18 03:41:01;;;;;;;11.70;6.07;;;9.90;98.00;;;;;;5053480;28;20461;-67
2024/03/18 03:43:28;;;;;;;12.57;6.20;;;9.80;98.00;;;;;;5053253;28;20492;-67
2024/03/18 03:45:57;;;;;;;9.87;5.37;;;9.80;98.00;;;;;;5059744;28;20449;-67
2024/03/18 03:48:27;;;;;;;9.57;5.50;;;9.80;98.00;;;;;;5072694;28;20456;-66
2024/03/18 03:50:55;;;;;;;7.57;4.60;;;9.80;98.00;;;;;;5071962;28;20514;-67
2024/03/18 03:53:24;;;;;;;8.90;5.70;;;9.90;98.00;;;;;;5073240;28;20797;-67
2024/03/18 03:55:55;;;;;;;11.33;6.10;;;9.90;98.00;;;;;;5073388;28;20459;-66
2024/03/18 03:58:23;;;;;;;11.90;5.77;;;10.00;98.00;;;;;;5073247;28;20461;-67
2024/03/18 04:00:50;;;;;;;12.00;6.20;;;10.20;98.00;;;;;;5072173;28;20456;-67
2024/03/18 04:03:22;;;;;;;9.73;5.80;;;10.00;98.00;;;;;;5072204;28;20522;-67
2024/03/18 04:05:54;;;;;;;14.23;6.07;;;10.10;98.00;;;;;;5073432;28;20512;-67
2024/03/18 04:08:21;;;;;;;16.50;6.90;;;9.90;98.00;;;;;;5073123;28;20450;-67
2024/03/18 04:10:49;;;;;;;10.10;5.90;;;9.90;98.00;;;;;;5072904;28;20498;-67
2024/03/18 04:13:16;;;;;;;9.00;5.87;;;10.00;98.00;;;;;;5073005;28;20452;-67
2024/03/18 04:15:43;;;;;;;9.23;5.60;;;10.00;98.00;;;;;;5072546;28;20462;-66
2024/03/18 04:18:11;;;;;;;10.13;5.90;;;9.80;98.00;;;;;;5071339;28;20452;-67
2024/03/18 04:20:39;;;;;;;14.70;6.40;;;9.70;98.00;;;;;;5072866;28;20455;-67
2024/03/18 04:23:07;;;;;;;12.10;5.60;;;9.70;98.00;;;;;;5072691;28;20482;-67
2024/03/18 04:25:37;;;;;;;11.20;6.40;;;9.60;98.00;;;;;;5072726;28;20453;-67
2024/03/18 04:28:07;;;;;;;17.60;6.20;;;9.60;98.00;;;;;;5072403;28;20448;-67
2024/03/18 04:30:36;;;;;;;11.90;6.37;;;9.60;98.00;;;;;;5072429;28;20481;-67
2024/03/18 04:33:06;;;;;;;11.30;5.93;;;9.60;98.00;;;;;;5071246;28;20854;-67
2024/03/18 04:35:33;;;;;;;9.37;5.57;;;9.70;98.00;;;;;;5072477;28;21027;-67
2024/03/18 04:38:00;;;;;;;11.23;5.70;;;9.80;98.00;;;;;;5072361;28;20465;-66
2024/03/18 04:40:29;;;;;;;10.70;5.90;;;9.90;98.00;;;;;;5072223;28;20455;-67
2024/03/18 04:42:57;;;;;;;14.63;6.07;;;9.90;98.00;;;;;;5072358;28;20989;-67
2024/03/18 04:45:26;;;;;;;10.70;5.90;;;10.00;98.00;;;;;;5072374;28;20447;-67
2024/03/18 04:47:54;;;;;;;11.50;6.40;;;10.00;98.00;;;;;;5072173;28;20457;-67
2024/03/18 04:50:22;;;;;;;9.97;5.87;;;10.00;98.00;;;;;;5070951;28;20524;-67
2024/03/18 04:52:50;;;;;;;10.87;5.93;;;10.00;98.00;;;;;;5072013;28;20456;-67
2024/03/18 04:55:18;;;;;;;9.43;5.10;;;10.00;98.00;;;;;;5072113;28;20964;-66
2024/03/18 04:57:50;;;;;;;9.30;5.40;;;10.00;98.00;;;;;;5072071;28;20459;-66
2024/03/18 05:00:18;;;;;;;11.53;5.77;;;9.90;98.00;;;;;;5071894;28;20445;-66
2024/03/18 05:02:46;;;;;;;14.57;6.50;;;9.90;98.00;;;;;;5071894;28;20487;-67
2024/03/18 05:05:14;;;;;;;14.83;6.97;;;9.90;98.00;;;;;;5071963;28;20458;-67
2024/03/18 05:07:42;;;;;;;12.23;6.27;;;9.80;98.00;;;;;;5072059;28;20447;-67
2024/03/18 05:10:10;;;;;;;11.07;6.00;;;9.80;98.00;;;;;;5071926;28;20490;-66
2024/03/18 05:12:38;;;;;;;11.97;6.13;;;9.80;98.00;;;;;;5071949;28;20609;-66
2024/03/18 05:15:08;;;;;;;9.70;5.50;;;9.80;98.00;;;;;;5071842;28;20451;-66
2024/03/18 05:17:35;;;;;;;9.33;5.67;;;9.80;98.00;;;;;;5071910;28;20479;-67
2024/03/18 05:20:04;;;;;;;10.80;5.50;;;10.00;98.00;;;;;;5072000;28;20508;-66
2024/03/18 05:22:32;;;;;;;11.70;5.73;;;10.10;98.00;;;;;;5071888;28;20527;-66
2024/03/18 05:25:05;;;;;;;9.97;5.40;;;10.10;98.00;;;;;;5071860;28;20464;-67
2024/03/18 05:27:32;;;;;;;9.83;5.13;;;10.00;98.00;;;;;;5071838;28;20451;-66
2024/03/18 05:30:00;;;;;;;10.60;5.50;;;10.00;98.00;;;;;;5071621;28;20463;-67
2024/03/18 05:32:29;;;;;;;10.27;5.53;;;9.90;98.00;;;;;;5071719;28;20449;-66
2024/03/18 05:34:57;;;;;;;7.67;5.07;;;9.90;98.00;;;;;;5071797;28;20462;-67
2024/03/18 05:37:25;;;;;;;10.73;5.30;;;9.90;98.00;;;;;;5071735;28;20454;-66
2024/03/18 05:39:53;;;;;;;12.60;6.27;;;9.80;98.00;;;;;;5071808;28;20903;-67
2024/03/18 05:42:20;;;;;;;12.83;6.67;;;9.90;98.00;;;;;;5071795;28;20539;-67
2024/03/18 05:44:47;;;;;;;8.43;5.37;;;9.90;98.00;;;;;;5071859;28;20447;-67
2024/03/18 05:47:15;;;;;;;12.93;6.50;;;9.80;98.00;;;;;;5070282;28;21049;-66
2024/03/18 05:50:06;;;;;;;9.93;5.70;;;9.90;98.00;;;;;;5071821;28;20455;-67
2024/03/18 05:52:33;;;;;;;10.10;5.57;;;9.90;98.00;;;;;;5070852;28;20795;-67
2024/03/18 05:55:01;;;;;;;11.33;6.50;;;9.90;98.00;;;;;;5071761;28;20463;-66
2024/03/18 05:57:28;;;;;;;11.90;5.73;;;9.90;98.00;;;;;;5071862;28;21028;-67
2024/03/18 05:59:55;;;;;;;13.30;6.10;;;9.90;98.00;;;;;;5072100;28;20459;-66
2024/03/18 06:02:22;;;;;;;10.60;5.73;;;9.80;98.00;;;;;;5075587;28;20459;-67
2024/03/18 06:04:49;;;;;;;12.47;6.77;;;9.90;98.00;;;;;;5074214;28;20791;-67
2024/03/18 06:07:21;;;;;;;13.50;7.03;;;9.90;98.00;;;;;;5075296;28;20943;-67
2024/03/18 06:09:48;;;;;;;13.10;7.07;;;9.90;98.00;;;;;;5075286;28;20479;-66
2024/03/18 06:12:15;;;;;;;10.77;5.80;;;9.90;98.00;;;;;;5075323;28;20465;-66
2024/03/18 06:14:42;;;;;;;11.33;6.07;;;9.90;98.00;;;;;;5075141;28;20522;-66
2024/03/18 06:17:09;;;;;;;13.90;6.50;;;9.90;98.00;;;;;;5075008;28;20467;-67
2024/03/18 06:19:36;;;;;;;10.80;6.30;;;10.00;98.00;;;;;;5075012;28;20449;-67
2024/03/18 06:22:09;;;;;;;19.17;9.70;;;10.00;98.00;;;;;;5075183;28;20804;-66
2024/03/18 06:27:19;;;;;;;26.20;12.60;;;10.10;98.00;;;;;;5051884;28;21060;-66
2024/03/18 06:29:46;;;;;;;37.60;18.20;;;10.20;98.00;;;;;;5074596;28;20468;-67
2024/03/18 06:32:15;;;;;;;20.50;10.63;;;10.20;98.00;;;;;;5074796;28;20970;-67
2024/03/18 06:34:42;;;;;;;23.50;11.53;;;10.20;98.00;;;;;;5074690;28;20957;-67
2024/03/18 06:37:09;;;;;;;18.07;9.57;;;10.00;98.00;;;;;;5074489;28;20470;-67
2024/03/18 06:39:38;;;;;;;15.83;8.20;;;10.00;98.00;;;;;;5073418;28;20458;-67
2024/03/18 06:42:06;;;;;;;13.47;7.70;;;10.00;98.00;;;;;;5074063;28;20545;-67
2024/03/18 06:44:34;;;;;;;11.17;6.10;;;10.10;98.00;;;;;;5073952;28;20893;-66
2024/03/18 06:47:01;;;;;;;10.00;5.20;;;10.40;98.00;;;;;;5074571;28;20950;-67
2024/03/18 06:49:28;;;;;;;11.57;6.10;;;10.40;98.00;;;;;;5074643;28;20453;-67
2024/03/18 06:51:56;;;;;;;10.83;5.70;;;10.50;98.00;;;;;;5074391;28;20454;-67
2024/03/18 06:54:23;;;;;;;9.50;5.47;;;10.40;98.00;;;;;;5074598;28;20695;-67
2024/03/18 06:56:54;;;;;;;12.40;6.27;;;10.40;98.00;;;;;;5074647;28;20460;-67
2024/03/18 06:59:22;;;;;;;10.90;6.00;;;10.30;98.00;;;;;;5074439;28;20455;-64
2024/03/18 07:01:51;;;;;;;9.97;4.97;;;10.30;98.00;;;;;;5074319;28;20454;-64
2024/03/18 07:04:19;;;;;;;14.30;6.37;;;10.30;98.00;;;;;;5074005;28;20490;-64
2024/03/18 07:06:47;;;;;;;9.60;5.30;;;10.50;98.00;;;;;;5074400;28;20455;-64
2024/03/18 07:09:15;;;;;;;14.20;6.53;;;10.40;98.00;;;;;;5074235;28;20461;-64
2024/03/18 07:11:42;;;;;;;12.63;5.80;;;10.40;98.00;;;;;;5071655;28;20464;-64
2024/03/18 07:14:14;;;;;;;11.23;6.10;;;10.40;98.00;;;;;;5072956;28;20452;-64
2024/03/18 07:16:41;;;;;;;11.03;5.70;;;10.60;98.00;;;;;;5074128;28;20951;-65
2024/03/18 07:19:08;;;;;;;10.00;5.70;;;10.50;98.00;;;;;;5074018;28;20450;-64
2024/03/18 07:21:36;;;;;;;12.67;6.40;;;10.40;98.00;;;;;;5074181;28;20463;-64
2024/03/18 07:24:05;;;;;;;11.70;6.30;;;10.30;98.00;;;;;;5074005;28;20496;-64
2024/03/18 07:26:33;;;;;;;11.53;6.57;;;10.30;98.00;;;;;;5074080;28;21185;-64
2024/03/18 07:29:00;;;;;;;10.37;5.77;;;10.30;98.00;;;;;;5073720;28;21154;-65
2024/03/18 07:31:29;;;;;;;10.30;5.90;;;10.20;98.00;;;;;;5072808;28;20475;-64
2024/03/18 07:33:57;;;;;;;12.50;5.90;;;10.30;98.00;;;;;;5073903;28;20539;-64
2024/03/18 07:36:28;;;;;;;10.17;5.83;;;10.50;98.00;;;;;;5073759;28;20458;-64
2024/03/18 07:38:58;;;;;;;11.03;5.63;;;10.60;98.00;;;;;;5073526;28;20452;-64
2024/03/18 07:41:27;;;;;;;9.93;5.63;;;10.50;98.00;;;;;;5073639;28;20455;-64
2024/03/18 07:43:56;;;;;;;12.37;6.40;;;10.50;98.00;;;;;;5073961;28;20489;-64
2024/03/18 07:46:24;;;;;;;10.90;5.90;;;10.40;98.00;;;;;;5072747;28;20456;-65
2024/03/18 07:48:52;;;;;;;12.57;5.80;;;10.40;98.00;;;;;;5073948;28;20850;-64
2024/03/18 07:51:19;;;;;;;13.33;5.93;;;10.40;98.00;;;;;;5072567;28;20505;-64
2024/03/18 07:53:46;;;;;;;12.13;6.67;;;10.40;98.00;;;;;;5053818;28;20454;-64
2024/03/18 07:56:13;;;;;;;11.70;6.47;;;10.50;98.00;;;;;;5052113;28;20467;-64
2024/03/18 07:58:40;;;;;;;12.83;6.23;;;10.50;98.00;;;;;;5053174;28;20957;-64
2024/03/18 08:01:08;;;;;;;11.90;5.77;;;10.40;98.00;;;;;;5053371;28;20515;-64
2024/03/18 08:03:36;;;;;;;10.93;5.33;;;10.40;98.00;;;;;;5053109;28;20492;-64
2024/03/18 08:06:11;;;;;;;11.40;6.30;;;10.50;98.00;;;;;;5053171;28;20453;-64
2024/03/18 08:08:38;;;;;;;11.70;6.30;;;10.70;98.00;;;;;;5052956;28;20464;-64
2024/03/18 08:11:05;;;;;;;15.20;6.80;;;10.70;98.00;;;;;;5053072;28;20454;-64
2024/03/18 08:13:33;;;;;;;12.30;6.13;;;10.70;98.00;;;;;;5053006;28;20460;-64
2024/03/18 08:16:00;;;;;;;10.27;5.77;;;10.60;98.00;;;;;;5052796;28;20853;-64
2024/03/18 08:18:27;;;;;;;13.20;6.20;;;10.50;98.00;;;;;;5052738;28;20874;-64
2024/03/18 08:20:55;;;;;;;11.10;5.90;;;10.50;98.00;;;;;;5052806;28;20494;-64
2024/03/18 08:23:24;;;;;;;10.00;5.80;;;10.60;98.00;;;;;;5052153;28;20456;-64
2024/03/18 08:25:51;;;;;;;13.27;7.17;;;10.80;98.00;;;;;;5052849;28;20463;-64
2024/03/18 08:28:18;;;;;;;12.90;7.13;;;10.90;98.00;;;;;;5052484;28;20460;-64
2024/03/18 08:30:46;;;;;;;11.67;6.47;;;11.10;98.00;;;;;;5052418;28;20465;-64
2024/03/18 08:33:13;;;;;;;12.47;6.57;;;11.40;98.00;;;;;;5052360;28;20849;-64
2024/03/18 08:35:40;;;;;;;14.17;6.40;;;11.50;98.00;;;;;;5051614;28;20446;-64
2024/03/18 08:38:08;;;;;;;13.23;6.30;;;11.50;98.00;;;;;;5051586;28;20467;-64
2024/03/18 08:40:36;;;;;;;15.30;5.97;;;11.40;98.00;;;;;;5052241;28;20455;-64
2024/03/18 08:43:04;;;;;;;13.50;5.90;;;11.30;98.00;;;;;;5052255;28;20460;-64
2024/03/18 08:45:31;;;;;;;11.20;6.10;;;11.10;98.00;;;;;;5052077;28;20516;-64
2024/03/18 08:47:58;;;;;;;9.33;5.60;;;11.10;98.00;;;;;;5052208;28;20958;-64
2024/03/18 08:50:25;;;;;;;13.67;6.33;;;11.10;98.00;;;;;;5052426;28;20450;-65
2024/03/18 08:52:52;;;;;;;10.77;6.10;;;11.10;98.00;;;;;;5070198;28;20451;-64
2024/03/18 08:55:21;;;;;;;10.70;6.13;;;11.30;98.00;;;;;;5071817;28;20467;-64
2024/03/18 08:57:50;;;;;;;10.50;6.17;;;11.30;98.00;;;;;;5072211;28;20470;-64
2024/03/18 09:00:17;;;;;;;11.93;6.33;;;11.40;98.00;;;;;;5070390;28;20514;-64
2024/03/18 09:02:49;;;;;;;12.13;6.33;;;11.50;98.00;;;;;;5072156;28;20997;-64
2024/03/18 09:05:18;;;;;;;11.93;6.40;;;11.40;98.00;;;;;;5051908;28;20493;-63
2024/03/18 09:07:45;;;;;;;13.53;7.07;;;11.40;98.00;;;;;;5067293;28;20462;-64
2024/03/18 09:10:14;;;;;;;11.90;6.37;;;11.40;98.00;;;;;;5051983;28;20465;-63
2024/03/18 09:12:41;;;;;;;12.80;6.40;;;11.20;98.00;;;;;;5051095;28;21052;-64
2024/03/18 09:15:11;;;;;;;17.07;7.60;;;11.30;98.00;;;;;;5031891;28;20451;-65
2024/03/18 09:17:38;;;;;;;11.50;6.70;;;11.30;98.00;;;;;;5031973;28;20455;-64
2024/03/18 09:20:09;;;;;;;12.60;6.80;;;11.30;98.00;;;;;;5031708;28;20804;-65
2024/03/18 09:22:36;;;;;;;12.03;6.67;;;11.40;98.00;;;;;;5046889;28;20941;-64
2024/03/18 09:25:06;;;;;;;15.47;7.57;;;11.40;98.00;;;;;;5031772;28;20487;-64
2024/03/18 09:27:34;;;;;;;14.50;7.23;;;11.60;98.00;;;;;;5031965;28;20447;-64
2024/03/18 09:30:01;;;;;;;14.50;7.77;;;11.60;98.00;;;;;;5031844;28;20537;-64
2024/03/18 09:32:30;;;;;;;13.00;7.10;;;11.70;98.00;;;;;;5031084;28;20512;-65
2024/03/18 09:34:57;;;;;;;14.03;7.33;;;11.80;98.00;;;;;;5030922;28;20466;-65
2024/03/18 09:37:24;;;;;;;21.87;7.83;;;11.80;98.00;;;;;;5031968;28;20452;-65
2024/03/18 09:40:03;;;;;;;14.43;7.70;;;11.90;98.00;;;;;;5031843;28;20464;-64
2024/03/18 09:42:38;;;;;;;16.50;7.50;;;11.80;98.00;;;;;;5032257;28;20459;-65
2024/03/18 09:45:09;;;;;;;19.60;8.03;;;11.70;98.00;;;;;;5031760;28;21033;-65
2024/03/18 09:47:38;;;;;;;14.30;8.10;;;11.80;98.00;;;;;;5031609;28;20459;-65
2024/03/18 09:50:06;;;;;;;18.60;9.17;;;11.90;98.00;;;;;;5031371;28;20454;-65
2024/03/18 09:52:36;;;;;;;18.20;8.27;;;11.90;98.00;;;;;;5031490;28;20451;-64
2024/03/18 09:55:21;;;;;;;14.93;8.77;;;12.10;98.00;;;;;;5046599;28;20485;-65
2024/03/18 09:57:49;;;;;;;15.30;8.53;;;12.20;98.00;;;;;;5031386;28;21124;-65
2024/03/18 10:00:17;;;;;;;12.60;7.60;;;12.20;98.00;;;;;;5031404;28;20488;-64
2024/03/18 10:02:46;;;;;;;13.53;7.50;;;12.10;98.00;;;;;;5031104;28;20971;-65
2024/03/18 10:05:13;;;;;;;11.80;6.90;;;12.20;98.00;;;;;;5031178;28;20484;-65
2024/03/18 10:07:46;;;;;;;12.80;6.60;;;12.40;98.00;;;;;;5031331;28;20508;-65
2024/03/18 10:10:16;;;;;;;12.60;7.27;;;12.50;98.00;;;;;;5031381;28;20868;-65
2024/03/18 10:12:43;;;;;;;17.50;8.17;;;12.50;98.00;;;;;;5030569;28;20455;-65
2024/03/18 10:15:13;;;;;;;15.90;8.30;;;12.60;98.00;;;;;;5031222;28;20595;-65
2024/03/18 10:17:41;;;;;;;13.13;6.50;;;12.70;98.00;;;;;;5031425;28;21016;-65
2024/03/18 10:20:18;;;;;;;12.30;6.53;;;12.80;98.00;;;;;;5031150;28;20854;-65
2024/03/18 10:22:46;;;;;;;10.53;6.23;;;12.80;98.00;;;;;;5031142;28;20493;-65
2024/03/18 10:25:17;;;;;;;13.20;6.07;;;12.80;98.00;;;;;;5030869;28;20910;-65
2024/03/18 10:27:45;;;;;;;13.23;5.80;;;12.80;98.00;;;;;;5030991;28;20530;-65
2024/03/18 10:30:14;;;;;;;15.93;6.03;;;12.60;98.00;;;;;;5029701;28;20463;-64
2024/03/18 10:32:42;;;;;;;11.43;6.00;;;12.60;98.00;;;;;;5031140;28;20461;-65
2024/03/18 10:35:20;;;;;;;11.30;6.17;;;12.60;98.00;;;;;;5030970;28;20543;-65
2024/03/18 10:37:56;;;;;;;12.07;6.40;;;12.50;98.00;;;;;;5030904;28;20452;-65
2024/03/18 10:40:34;;;;;;;10.60;5.57;;;12.40;98.00;;;;;;5030735;28;20460;-65
2024/03/18 10:43:04;;;;;;;9.13;5.80;;;12.30;98.00;;;;;;5031191;28;20457;-64
2024/03/18 10:45:33;;;;;;;10.83;5.57;;;12.20;98.00;;;;;;5030203;28;20489;-65
2024/03/18 10:48:04;;;;;;;10.63;5.73;;;12.30;98.00;;;;;;5034625;28;20518;-65
2024/03/18 10:50:33;;;;;;;11.43;5.93;;;12.40;98.00;;;;;;5049812;28;20490;-65
2024/03/18 10:53:01;;;;;;;11.77;5.70;;;12.40;98.00;;;;;;5034386;28;20460;-65
2024/03/18 10:55:30;;;;;;;14.13;7.10;;;12.60;98.00;;;;;;5034466;28;20956;-65
2024/03/18 10:58:00;;;;;;;17.87;7.20;;;12.60;98.00;;;;;;5039108;28;20453;-65
2024/03/18 11:00:27;;;;;;;14.23;6.87;;;12.50;98.00;;;;;;5054183;28;20519;-64
2024/03/18 11:02:57;;;;;;;15.47;7.10;;;12.40;98.00;;;;;;5054187;28;20470;-64
2024/03/18 11:05:29;;;;;;;12.67;6.40;;;12.40;98.00;;;;;;5053113;28;20981;-64
2024/03/18 11:08:00;;;;;;;12.00;6.53;;;12.50;98.00;;;;;;5054442;28;20458;-64
2024/03/18 11:10:31;;;;;;;17.00;7.30;;;12.60;98.00;;;;;;5054145;28;20492;-65
2024/03/18 11:13:08;;;;;;;12.13;6.67;;;12.80;98.00;;;;;;5054329;28;20480;-66
2024/03/18 11:15:35;;;;;;;11.80;6.70;;;12.90;98.00;;;;;;5054359;28;20849;-66
2024/03/18 11:18:05;;;;;;;12.20;6.30;;;12.90;98.00;;;;;;5054208;28;20459;-65
2024/03/18 11:20:45;;;;;;;9.60;5.30;;;12.90;98.00;;;;;;5053958;28;20494;-65
2024/03/18 11:23:17;;;;;;;17.40;5.53;;;12.90;98.00;;;;;;5053677;28;20538;-65
2024/03/18 11:25:45;;;;;;;11.97;5.20;;;12.80;98.00;;;;;;5053704;28;20492;-65
2024/03/18 11:28:11;;;;;;;10.30;5.23;;;12.90;98.00;;;;;;5052925;28;20945;-65
2024/03/18 11:30:42;;;;;;;9.53;5.50;;;13.00;98.00;;;;;;5053029;28;20474;-65
2024/03/18 11:33:10;;;;;;;9.60;4.97;;;13.40;98.00;;;;;;5053547;28;20457;-65
2024/03/18 11:35:45;;;;;;;10.47;5.10;;;13.50;98.00;;;;;;5053754;28;20502;-65
2024/03/18 11:38:16;;;;;;;10.60;4.80;;;13.50;98.00;;;;;;5043768;28;20500;-65
2024/03/18 11:40:43;;;;;;;10.00;4.90;;;13.50;98.00;;;;;;5068783;28;20485;-65
2024/03/18 11:43:10;;;;;;;9.60;5.20;;;13.50;98.00;;;;;;5053514;28;20466;-65
2024/03/18 11:45:38;;;;;;;13.10;5.80;;;13.30;98.00;;;;;;5068761;28;20503;-65
2024/03/18 11:48:07;;;;;;;8.00;4.80;;;13.40;98.00;;;;;;5053095;28;20460;-65
2024/03/18 11:50:35;;;;;;;8.70;4.10;;;13.50;98.00;;;;;;5053208;28;20456;-65
2024/03/18 11:53:04;;;;;;;8.20;4.67;;;13.50;98.00;;;;;;5053465;28;20511;-65
2024/03/18 11:55:36;;;;;;;7.83;5.00;;;13.50;98.00;;;;;;5053351;28;20850;-65
2024/03/18 11:58:04;;;;;;;9.10;5.23;;;13.40;98.00;;;;;;5052354;28;20460;-65
2024/03/18 12:00:33;;;;;;;12.17;5.50;;;13.50;98.00;;;;;;5053277;28;20555;-65
2024/03/18 12:03:02;;;;;;;9.90;5.07;;;13.50;98.00;;;;;;5053118;28;20479;-65
2024/03/18 12:05:49;;;;;;;9.30;5.60;;;13.60;98.00;;;;;;5052998;28;20573;-65
2024/03/18 12:08:20;;;;;;;10.40;4.90;;;13.50;98.00;;;;;;5053634;28;20462;-65
2024/03/18 12:10:53;;;;;;;10.07;5.50;;;13.40;98.00;;;;;;5052034;28;20460;-65
2024/03/18 12:13:21;;;;;;;9.07;4.63;;;13.40;98.00;;;;;;5052848;28;20503;-65
2024/03/18 12:15:51;;;;;;;7.10;4.00;;;13.50;98.00;;;;;;5052979;28;20817;-65
2024/03/18 12:18:18;;;;;;;6.13;3.77;;;13.40;98.00;;;;;;5052716;28;20464;-65
2024/03/18 12:20:46;;;;;;;7.83;4.20;;;13.40;98.00;;;;;;5052857;28;20458;-64
2024/03/18 12:28:48;;;;;;;12.33;5.90;;;13.40;98.00;;;;;;5065521;28;20460;-66
2024/03/18 12:31:19;;;;;;;14.87;6.40;;;13.40;98.00;;;;;;5052501;28;20463;-65
2024/03/18 12:33:47;;;;;;;11.40;6.10;;;13.50;98.00;;;;;;5052568;28;20448;-65
2024/03/18 12:36:15;;;;;;;12.23;6.23;;;13.60;98.00;;;;;;5052456;28;20935;-65
2024/03/18 12:38:46;;;;;;;14.73;7.00;;;13.60;98.00;;;;;;5052139;28;20456;-65
2024/03/18 12:41:20;;;;;;;13.00;6.93;;;13.60;98.00;;;;;;5052572;28;20876;-65
2024/03/18 12:43:47;;;;;;;14.70;7.43;;;13.60;98.00;;;;;;5052305;28;20451;-65
2024/03/18 12:46:16;;;;;;;17.00;7.47;;;13.50;98.00;;;;;;5052430;28;20542;-65
2024/03/18 12:48:45;;;;;;;15.23;7.40;;;13.60;98.00;;;;;;5052295;28;20496;-65
2024/03/18 12:51:15;;;;;;;14.47;7.60;;;13.50;98.00;;;;;;5052207;28;20455;-65
2024/03/18 12:53:42;;;;;;;11.60;6.47;;;13.50;98.00;;;;;;5052450;28;20467;-65
2024/03/18 12:56:11;;;;;;;13.00;6.47;;;13.50;98.00;;;;;;5052514;28;20455;-66